Goodyears Corners, New York
Current Conditions -  °F | °C
As of 3:56 PM on Saturday 22 Nov 2014 (Local Time) from KITH Reporting Station
Overcast Overcast  
Wind Chill: 34°   Ceiling: 2200
Heat Index: 42°   Visibility: 10mi
Dew Point: 30°   Wind: 15mph
Humidity: 63%   Direction: 200°SSW
Pressure: 30.07"   Gusts: 21mph
Location:  42.6734°N, 76.6263°W
Report Text: KITH 222056Z 20013G18KT 10SM OVC022 06/M01 A3007 RMK AO2 56015 T00551011 SLP195
Loading
Personal Weather Stations






























Interactive Weather Map New forecast layout! Learn more

10-Day Weather Forecast

Advertisements
Track Severe Weather on mobile